Latest Weather Observations for Launceston Airport

IDT60801

Issued at 6:31 pm EST Wednesday 10 August 2022 (issued every 10 minutes, with the page automatically refreshed every 10 minutes)

About weather observations | Map of weather stations | Latest weather observations for TAS | Other Formats
Station Details ID: 091311 Name: LAUNCESTON AIRPORT Lat: -41.55 Lon: 147.22 Height: 166.9 m
Data from the previous 72 hours. | See also: Recent months at Launceston Airport
Date/Time
EST
Temp
°C
App
Temp
°C
Dew
Point
°C
Rel
Hum
%
Delta-T
°C
Wind Press
QNH
hPa
Press
MSL
hPa
Rain since
9am
mm
Dir  Spd
km/h
Gust
km/h
Spd
kts
Gust
kts
10/06:30pm 5.3 1.9 1.8 78 1.4 NNW 9 11 5 6 1024.8 1025.2 0.0
10/06:00pm 5.6 0.7 1.9 77 1.5 NNW 17 19 9 10 1024.8 1025.2 0.0
10/05:30pm 6.3 1.4 2.0 74 1.8 NNW 17 20 9 11 1024.5 1024.9 0.0
10/05:00pm 7.2 3.1 2.3 71 2.0 NNW 13 17 7 9 1024.8 1025.2 0.0
10/04:30pm 7.6 3.5 2.3 69 2.2 NNW 13 15 7 8 1025.1 1025.5 0.0
10/04:00pm 9.0 4.8 1.7 60 3.0 NNW 13 19 7 10 1025.3 1025.7 0.0
10/03:30pm 10.1 4.5 1.0 53 3.8 NNW 20 30 11 16 1025.6 1025.9 0.0
10/03:00pm 11.6 6.6 1.3 49 4.3 N 17 24 9 13 1025.7 1026.0 0.0
10/02:30pm 11.4 6.1 1.6 51 4.2 NW 19 26 10 14 1026.2 1026.6 0.0
10/02:00pm 11.0 5.6 1.5 52 4.0 NW 19 26 10 14 1026.7 1027.1 0.0
10/01:30pm 10.9 7.3 3.0 58 3.5 W 11 15 6 8 1027.2 1027.6 0.0
10/01:00pm 10.4 6.0 2.5 58 3.4 W 15 19 8 10 1027.5 1027.9 0.0
10/12:30pm 9.9 6.3 3.2 63 2.9 WSW 11 15 6 8 1027.8 1028.2 0.0
10/12:00pm 8.8 5.1 2.4 64 2.7 SW 11 15 6 8 1028.3 1028.7 0.0
10/11:30am 8.0 4.3 2.3 67 2.4 SW 11 13 6 7 1028.8 1029.2 0.0
10/11:00am 7.2 3.5 2.3 71 2.0 SSW 11 13 6 7 1029.1 1029.5 0.0
10/10:30am 6.0 2.2 1.9 75 1.7 S 11 15 6 8 1029.2 1029.6 0.0
10/10:00am 4.8 0.9 0.9 76 1.5 SSW 11 13 6 7 1029.3 1029.7 0.0
10/09:30am 3.4 -0.9 1.0 84 0.9 SSE 13 15 7 8 1029.6 1030.0 0.0
10/09:00am 2.9 -0.7 0.6 85 0.9 S 9 13 5 7 1029.9 1030.3 0.2
10/08:30am 1.7 -1.4 -0.1 88 0.7 SSW 6 9 3 5 1030.3 1030.7 0.2
10/08:00am 0.1 -3.3 -0.9 93 0.4 SW 7 9 4 5 1030.3 1030.7 0.0
10/07:30am -1.0 -5.0 -2.0 93 0.3 SSW 9 11 5 6 1029.9 1030.3 0.0
10/07:00am -1.2 -6.0 -2.5 91 0.4 SSW 13 15 7 8 1029.4 1029.8 0.0
10/06:30am -1.0 -5.4 -2.4 90 0.4 S 11 11 6 6 1029.3 1029.7 0.0
10/06:00am -1.2 -5.6 -2.5 91 0.4 S 11 13 6 7 1029.3 1029.7 0.0
10/05:30am -1.4 -5.8 -2.7 91 0.4 SSW 11 11 6 6 1028.9 1029.3 0.0
10/05:00am -1.2 -5.6 -2.3 92 0.3 SSW 11 11 6 6 1028.8 1029.2 0.0
10/04:30am -1.7 -5.8 -2.8 92 0.3 S 9 11 5 6 1028.9 1029.3 0.0
10/04:00am -1.1 -5.5 -2.1 93 0.3 S 11 13 6 7 1028.8 1029.2 0.0
10/03:30am -0.7 -5.0 -1.7 93 0.3 SSW 11 13 6 7 1028.9 1029.3 0.0
10/03:00am -0.9 -4.5 -2.3 90 0.4 SSW 7 9 4 5 1029.0 1029.4 0.0
10/02:30am -0.6 -4.2 -2.3 88 0.6 SSW 7 9 4 5 1029.2 1029.6 0.0
10/02:00am -0.2 -3.8 -1.9 88 0.6 S 7 9 4 5 1029.1 1029.5 0.0
10/01:30am -0.2 -4.2 -2.1 87 0.6 SSE 9 11 5 6 1029.1 1029.5 0.0
10/01:00am 0.7 -3.2 -1.5 85 0.8 SSW 9 11 5 6 1029.1 1029.5 0.0
10/12:30am 0.9 -3.0 -1.3 85 0.8 SSW 9 9 5 5 1028.9 1029.3 0.0
10/12:00am 0.9 -2.6 -1.5 84 0.8 S 7 9 4 5 1029.0 1029.4 0.0
 
Date/Time
EST
Temp
°C
App
Temp
°C
Dew
Point
°C
Rel
Hum
%
Delta-T
°C
Wind Press
QNH
hPa
Press
MSL
hPa
Rain since
9am
mm
Dir  Spd
km/h
Gust
km/h
Spd
kts
Gust
kts
09/11:30pm 1.3 -2.2 -1.1 84 0.9 SSW 7 9 4 5 1028.9 1029.3 0.0
09/11:00pm 1.8 -1.6 -0.4 85 0.8 S 7 9 4 5 1028.9 1029.3 0.0
09/10:30pm 2.2 -1.7 -1.8 75 1.4 ESE 9 11 5 6 1029.0 1029.4 0.0
09/10:00pm 3.3 1.4 0.5 82 1.1 CALM 0 0 0 0 1029.0 1029.4 0.0
09/09:30pm 2.9 0.5 -0.5 78 1.3 S 2 6 1 3 1029.0 1029.4 0.0
09/09:00pm 3.3 1.3 -0.3 77 1.3 CALM 0 6 0 3 1028.8 1029.2 0.0
09/08:30pm 4.7 1.5 0.7 75 1.6 S 7 9 4 5 1028.4 1028.8 0.0
09/08:00pm 4.9 1.3 0.9 75 1.6 SE 9 11 5 6 1028.1 1028.5 0.0
09/07:30pm 5.2 1.0 1.9 79 1.3 SSW 13 15 7 8 1028.1 1028.5 0.0
09/07:00pm 6.2 1.7 2.1 75 1.7 SSW 15 17 8 9 1028.0 1028.4 0.0
09/06:30pm 5.8 2.0 1.9 76 1.6 SW 11 13 6 7 1027.7 1028.1 0.0
09/06:00pm 6.6 2.8 1.9 72 1.9 SSW 11 13 6 7 1027.6 1028.0 0.0
09/05:30pm 8.3 4.8 1.0 60 3.0 SSW 9 11 5 6 1027.4 1027.8 0.0
09/05:00pm 10.4 7.4 1.8 55 3.6 S 7 11 4 6 1027.2 1027.6 0.0
09/04:30pm 10.6 6.8 1.9 55 3.7 SE 11 15 6 8 1027.0 1027.4 0.0
09/04:00pm 11.5 7.3 1.7 51 4.2 SE 13 17 7 9 1027.0 1027.4 0.0
09/03:30pm 12.1 7.5 1.7 49 4.5 SSE 15 22 8 12 1026.9 1027.3 0.0
09/03:00pm 11.7 6.7 1.6 50 4.3 SE 17 20 9 11 1026.8 1027.2 0.0
09/02:30pm 11.8 7.4 2.8 54 4.0 SE 15 22 8 12 1026.7 1027.1 0.0
09/02:00pm 11.3 8.3 4.1 61 3.2 S 9 15 5 8 1026.8 1027.2 0.0
09/01:30pm 10.9 7.4 3.7 61 3.2 S 11 15 6 8 1027.0 1027.4 0.0
09/01:00pm 10.1 6.6 3.4 63 2.9 S 11 15 6 8 1027.1 1027.5 0.0
09/12:30pm 9.4 6.3 3.8 68 2.5 SSW 9 13 5 7 1027.4 1027.8 0.0
09/12:00pm 8.7 5.7 4.3 74 1.9 SW 9 13 5 7 1027.7 1028.1 0.0
09/11:30am 7.9 5.0 4.7 80 1.4 SSW 9 11 5 6 1028.1 1028.5 0.0
09/11:00am 7.0 4.4 4.1 82 1.2 S 7 11 4 6 1028.3 1028.7 0.0
09/10:30am 5.2 2.0 2.9 85 1.0 S 9 11 5 6 1028.2 1028.6 0.0
09/10:00am 3.4 0.0 2.1 91 0.5 SSW 9 11 5 6 1028.3 1028.7 0.0
09/09:30am 2.7 -1.1 1.7 93 0.4 S 11 13 6 7 1028.3 1028.7 0.0
09/09:00am 1.5 -2.0 1.1 97 0.2 SSW 9 13 5 7 1028.5 1028.9 0.0
09/08:30am 0.8 -2.8 0.5 98 0.1 S 9 11 5 6 1028.3 1028.7 0.0
09/08:26am 0.6 -2.7 0.3 98 0.1 S 7 11 4 6 1028.2 1028.6 0.0
09/08:00am -0.9 -4.8 -1.2 98 0.1 SSW 9 11 5 6 1028.1 1028.5 0.0
09/07:39am -1.2 -5.5 -1.6 97 0.1 SSW 11 13 6 7 1027.9 1028.3 0.0
09/07:30am -1.0 -5.3 -1.3 98 0.1 SSW 11 13 6 7 1027.8 1028.2 0.0
09/07:00am -0.9 -4.8 -1.2 98 0.1 SSW 9 11 5 6 1027.5 1027.9 0.0
09/06:30am -1.2 -4.7 -1.5 98 0.0 SSW 7 9 4 5 1027.1 1027.5 0.0
09/06:00am -1.0 -4.9 -1.3 98 0.1 SW 9 11 5 6 1026.9 1027.3 0.0
09/05:53am -0.9 -4.8 -1.2 98 0.1 SSW 9 11 5 6 1026.8 1027.2 0.0
09/05:49am -0.9 -4.8 -1.2 98 0.1 SSW 9 11 5 6 1026.8 1027.2 0.0
09/05:30am -1.0 -5.3 -1.3 98 0.1 SSW 11 11 6 6 1026.6 1027.0 0.0
09/05:09am -1.3 -5.2 -1.7 97 0.1 S 9 11 5 6 1026.5 1026.9 0.0
09/05:00am -1.2 -5.1 -1.8 96 0.2 S 9 11 5 6 1026.4 1026.8 0.0
09/04:30am -0.2 -4.0 -0.8 96 0.2 SSW 9 11 5 6 1026.3 1026.7 0.0
09/04:10am -0.2 -3.6 -0.8 96 0.2 S 7 11 4 6 1026.3 1026.7 0.0
09/04:00am -0.5 -3.0 -1.2 95 0.2 S 2 9 1 5 1026.3 1026.7 0.0
09/03:30am -0.2 -2.4 -1.2 93 0.3 CALM 0 0 0 0 1026.1 1026.5 0.0
09/03:00am 0.6 -1.5 -0.5 92 0.4 CALM 0 0 0 0 1026.3 1026.7 0.0
09/02:30am 0.7 -2.5 -0.7 90 0.5 W 6 7 3 4 1026.5 1026.9 0.0
09/02:00am 0.9 -1.3 -1.2 86 0.7 CALM 0 0 0 0 1026.3 1026.7 0.0
09/01:30am 2.0 0.0 0.2 88 0.7 CALM 0 0 0 0 1026.1 1026.5 0.0
09/01:00am 2.1 0.2 0.3 88 0.7 CALM 0 0 0 0 1026.2 1026.6 0.0
09/12:30am 2.6 0.7 0.8 88 0.7 CALM 0 0 0 0 1026.2 1026.6 0.0
09/12:00am 1.7 -1.1 -0.1 88 0.7 NNW 4 7 2 4 1026.3 1026.7 0.0
 
Date/Time
EST
Temp
°C
App
Temp
°C
Dew
Point
°C
Rel
Hum
%
Delta-T
°C
Wind Press
QNH
hPa
Press
MSL
hPa
Rain since
9am
mm
Dir  Spd
km/h
Gust
km/h
Spd
kts
Gust
kts
08/11:54pm 1.2 -2.1 -1.0 85 0.8 NNW 6 9 3 5 1026.2 1026.6 0.0
08/11:30pm 2.0 -1.7 -0.1 86 0.8 NNW 9 9 5 5 1026.3 1026.7 0.0
08/11:00pm 2.5 -1.1 0.7 88 0.7 N 9 9 5 5 1026.2 1026.6 0.0
08/10:30pm 2.5 -1.1 0.4 86 0.8 N 9 11 5 6 1026.2 1026.6 0.0
08/10:00pm 3.4 0.0 1.6 88 0.7 N 9 11 5 6 1025.9 1026.3 0.0
08/09:52pm 2.9 -0.6 1.3 89 0.6 N 9 11 5 6 1026.0 1026.4 0.0
08/09:30pm 3.4 -0.1 1.1 85 0.9 N 9 9 5 5 1026.0 1026.4 0.0
08/09:00pm 3.6 0.4 1.0 83 1.0 N 7 9 4 5 1026.0 1026.4 0.0
08/08:30pm 4.9 1.9 1.7 80 1.3 N 7 7 4 4 1025.9 1026.3 0.0
08/08:00pm 4.5 1.4 1.5 81 1.2 N 7 7 4 4 1025.7 1026.0 0.0
08/07:30pm 4.5 1.4 1.2 79 1.3 N 7 11 4 6 1025.6 1025.9 0.0
08/07:00pm 5.1 1.5 0.3 71 1.8 N 9 13 5 7 1025.4 1025.8 0.0
08/06:42pm 4.3 0.5 -0.7 70 1.9 NW 9 11 5 6 1025.2 1025.6 0.0
08/06:30pm 6.2 2.3 0.9 69 2.1 NW 11 11 6 6 1025.1 1025.5 0.0
08/06:25pm 6.5 3.0 1.0 68 2.2 NW 9 11 5 6 1025.0 1025.4 0.0
08/06:00pm 7.0 3.1 1.1 66 2.4 WNW 11 13 6 7 1024.8 1025.2 0.0
08/05:30pm 6.4 2.5 0.9 68 2.2 NW 11 13 6 7 1024.4 1024.8 0.0
08/05:20pm 6.8 2.9 1.1 67 2.3 NW 11 13 6 7 1024.3 1024.7 0.0
08/05:00pm 7.7 3.5 1.5 65 2.5 NNW 13 13 7 7 1024.2 1024.6 0.0
08/04:56pm 8.0 3.8 1.4 63 2.7 NNW 13 13 7 7 1024.2 1024.6 0.0
08/04:30pm 10.7 7.5 1.0 51 4.1 N 7 9 4 5 1024.0 1024.4 0.0
08/04:00pm 11.0 7.4 0.4 48 4.4 NNE 9 11 5 6 1024.0 1024.4 0.0
08/03:30pm 11.1 7.6 1.4 51 4.1 N 9 15 5 8 1024.1 1024.5 0.0
08/03:00pm 11.5 8.2 2.3 53 4.0 NNE 9 15 5 8 1024.1 1024.5 0.0
08/02:30pm 11.6 8.4 1.0 48 4.5 NW 7 13 4 7 1024.2 1024.6 0.0
08/02:00pm 10.6 9.0 2.7 58 3.4 CALM 0 4 0 2 1024.3 1024.7 0.0
08/01:30pm 10.8 8.2 3.1 59 3.4 NNE 6 11 3 6 1024.6 1025.0 0.0
08/01:00pm 11.0 8.5 3.8 61 3.2 NNE 6 7 3 4 1024.8 1025.2 0.0
08/12:30pm 10.1 8.3 3.6 64 2.9 WSW 2 11 1 6 1025.2 1025.6 0.0
08/12:00pm 8.5 6.7 3.4 70 2.2 S 2 7 1 4 1025.7 1026.0 0.0
08/11:30am 8.0 5.4 3.1 71 2.1 SE 6 9 3 5 1026.0 1026.4 0.0
08/11:00am 6.5 3.7 2.2 74 1.8 SE 6 9 3 5 1026.0 1026.4 0.0
08/10:30am 5.4 3.0 2.2 80 1.3 S 4 7 2 4 1026.0 1026.4 0.0
08/10:00am 4.3 0.9 2.0 85 0.9 SSE 9 11 5 6 1026.0 1026.4 0.0
08/09:30am 3.0 -0.4 1.8 92 0.5 SSW 9 13 5 7 1026.1 1026.5 0.0
08/09:00am 1.9 -1.6 1.3 96 0.2 SSW 9 13 5 7 1026.1 1026.5 0.2
08/08:30am 1.3 -2.6 1.0 98 0.1 SSW 11 13 6 7 1025.9 1026.3 0.2
08/08:17am 0.6 -3.0 0.3 98 0.1 SSW 9 13 5 7 1025.8 1026.1 0.0
08/08:00am -0.1 -4.6 -0.4 98 0.1 SW 13 15 7 8 1025.7 1026.0 0.0
08/07:41am -0.3 -4.9 -0.7 97 0.1 SSW 13 15 7 8 1025.6 1025.9 0.0
08/07:30am -0.1 -4.2 -0.5 97 0.1 S 11 15 6 8 1025.6 1025.9 0.0
08/07:00am -0.5 -4.7 -1.1 96 0.2 SSW 11 11 6 6 1025.3 1025.7 0.0
08/06:30am -0.1 -4.3 -0.7 96 0.2 S 11 11 6 6 1025.2 1025.6 0.0
08/06:00am 0.0 -3.8 -0.6 96 0.2 S 9 11 5 6 1024.8 1025.2 0.0
08/05:30am 0.5 -3.6 -0.1 96 0.2 S 11 13 6 7 1024.7 1025.1 0.0
08/05:00am 0.6 -3.5 0.0 96 0.2 S 11 13 6 7 1024.5 1024.9 0.0
08/04:30am 0.9 -3.1 0.3 96 0.2 S 11 15 6 8 1024.4 1024.8 0.0
08/04:00am 1.0 -3.4 0.3 95 0.3 S 13 15 7 8 1024.2 1024.6 0.0
08/03:30am 1.0 -3.1 0.1 94 0.3 SSW 11 13 6 7 1024.0 1024.4 0.0
08/03:00am 1.2 -2.8 0.2 93 0.4 S 11 13 6 7 1024.1 1024.5 0.0
08/02:30am 1.3 -3.1 0.1 92 0.4 S 13 15 7 8 1024.2 1024.6 0.0
08/02:00am 2.1 -1.9 0.6 90 0.6 S 11 11 6 6 1024.2 1024.6 0.0
08/01:30am 3.0 -1.6 1.5 90 0.6 SSW 15 17 8 9 1024.1 1024.5 0.0
08/01:00am 3.0 -0.8 1.5 90 0.6 SSW 11 13 6 7 1024.0 1024.4 0.0
08/12:30am 3.4 -0.8 1.6 88 0.7 S 13 17 7 9 1024.1 1024.5 0.0
08/12:00am 4.2 -0.3 2.1 86 0.8 S 15 17 8 9 1024.1 1024.5 0.0
 
Date/Time
EST
Temp
°C
App
Temp
°C
Dew
Point
°C
Rel
Hum
%
Delta-T
°C
Wind Press
QNH
hPa
Press
MSL
hPa
Rain since
9am
mm
Dir  Spd
km/h
Gust
km/h
Spd
kts
Gust
kts
07/11:30pm 4.6 0.5 2.5 86 0.9 S 13 17 7 9 1024.0 1024.4 0.0
07/11:00pm 4.7 1.1 2.7 87 0.8 SSE 11 13 6 7 1024.0 1024.4 0.0
07/10:30pm 4.9 0.5 2.6 85 0.9 SSE 15 17 8 9 1023.9 1024.3 0.0
07/10:00pm 5.0 0.6 2.7 85 0.9 SSE 15 17 8 9 1023.9 1024.3 0.0
07/09:30pm 5.4 1.0 2.8 83 1.1 SSE 15 19 8 10 1023.8 1024.2 0.0
07/09:00pm 5.6 1.6 2.9 83 1.1 SSE 13 15 7 8 1023.6 1024.0 0.0
07/08:30pm 5.9 1.5 2.9 81 1.3 S 15 19 8 10 1023.2 1023.6 0.0
07/08:00pm 5.9 2.3 2.7 80 1.3 SSE 11 15 6 8 1023.0 1023.4 0.0
07/07:30pm 5.9 2.2 2.5 79 1.4 S 11 13 6 7 1022.8 1023.2 0.0
07/07:00pm 6.3 2.3 2.8 78 1.5 SSE 13 15 7 8 1022.4 1022.8 0.0

Other formats

Comma delimited format used in spreadsheet applications
http://www.bom.gov.au/fwo/IDT60801/IDT60801.95966.axf

JavaScript Object Notation format (JSON) in row-major order
http://www.bom.gov.au/fwo/IDT60801/IDT60801.95966.json

Data quality

Most of these data are generated automatically and are frequently updated. Quality checks on data are not normally performed. It is possible for incorrect values to appear. Refer to information at About Latest Weather Observations and please check the disclaimer before using these data.